MUC | München Airways

 METAR UND TAF INFORMATION

METAR FOR LTBS
ADDS - METARS form results

(1633 UTC 05 June 2020)
Data provider http://aviationweather.gov/metar/data/
 
METAR text: LTBS 051620Z 22007KT 9999 FEW030 22/18 Q1015 NOSIG
Conditions at: LTBS (DALAMAN (COMMUNE, TR) observed 1620 UTC 05 June 2020
Temperature: 22.0°C (72°F)
Dewpoint: 18.0°C (64°F) [RH = 78%]
Pressure (altimeter): 29.97 inches Hg (1015.0 mb)
Winds: from the SW (220 degrees) at 8 MPH (7 knots; 3.6 m/s)
Visibility: 6 or more miles (10+ km)
Ceiling: at least 12,000 feet AGL
Clouds: few clouds at 3000 feet AGL
Weather: no significant weather observed at this time

METAR text: LTBS 051550Z 23009KT 200V260 9999 FEW030 23/18 Q1015 NOSIG
Conditions at: LTBS (DALAMAN (COMMUNE, TR) observed 1550 UTC 05 June 2020
Temperature: 23.0°C (73°F)
Dewpoint: 18.0°C (64°F) [RH = 73%]
Pressure (altimeter): 29.97 inches Hg (1015.0 mb)
Winds: from the SW (230 degrees) at 10 MPH (9 knots; 4.6 m/s)
Visibility: 6 or more miles (10+ km)
Ceiling: at least 12,000 feet AGL
Clouds: few clouds at 3000 feet AGL
Weather: no significant weather observed at this time

Forecast for: LTBS (DALAMAN (COMMUNE, TR)
Text: TAF LTBS 051040Z 0512/0612 21012KT 9999 FEW030
Forecast period: 1200 to 1500 UTC 05 June 2020
Forecast type: FROM: standard forecast or significant change
Winds: from the SSW (210 degrees) at 14 MPH (12 knots; 6.2 m/s)
Visibility: 6 or more miles 10+ km)
Ceiling: at least 12,000 feet AGL
Clouds: few clouds at 3000 feet AGL
Weather: no significant weather forecast for this period
Text: BECMG 0515/0517 VRB02KT CAVOK
Forecast period: 1500 UTC 05 June 2020 to 0600 UTC 06 June 2020
Forecast type: BECOMING: Conditions expected to become as follows by 1700 UTC 05 June 2020
Winds: variable direction winds at 2 MPH (2 knots; 1.0 m/s)
Visibility: 6 or more miles 10+ km)
Ceiling: unknown
Clouds: missing
Weather: NSW  (no significant weather)
Text: BECMG 0606/0608 21012KT FEW030
Forecast period: 0600 to 1200 UTC 06 June 2020
Forecast type: BECOMING: Conditions expected to become as follows by 0800 UTC 06 June 2020
Winds: from the SSW (210 degrees) at 14 MPH (12 knots; 6.2 m/s)
Visibility: 6 or more miles 10+ km)
Ceiling: at least 12,000 feet AGL
Clouds: few clouds at 3000 feet AGL
Weather: NSW  (no significant weather)

 FLUGHAFENKARTE

 RUNWAY INFORMATION
Runway 01 Runway length 9842 ft Runway width 148 ft
Runway elevation 10 ft Runway displaced threshold 0 ft Runway heading 15
Runway 19 Runway length 9842 ft Runway width 148 ft
Runway elevation 20 ft Runway displaced threshold 0 ft Runway heading 195

 AIRPORT FREQUENCIES
Type APP Name APP Frequency 119.225 MHZ
Type ATIS Name ATIS Frequency 127.35 MHZ
Type GND Name GND Frequency 121.9 MHZ
Type TWR Name TWR Frequency 118.5 MHZ

 AIRPORT NEAR NAVIGATION AIDS
Type TACAN Name Dalaman Frequency 115300 KHZ
Type VOR-DME Name Dalaman Frequency 114700 KHZ
Type NDB Name Dalaman Frequency 346 KHZ